Time;durP1;ratioP1;P1;durP2;ratioP2;P2;SDS_P1;SDS_P2;PMS_P1;PMS_P2;Temp;Humidity;BMP_temperature;BMP_pressure;BME280_temperature;BME280_humidity;BME280_pressure;Samples;Min_cycle;Max_cycle;Signal;HPM_P1;HPM_P2
2021/08/20 00:00:54;;;;;;;32.55;15.57;;;;;;;14.43;86.29;101598.31;4967681;28;20031;-51
2021/08/20 00:03:20;;;;;;;28.80;14.77;;;;;;;14.44;86.47;101602.72;4968254;28;20031;-50
2021/08/20 00:05:45;;;;;;;36.08;16.85;;;;;;;14.46;86.84;101605.31;4967923;28;20575;-52
2021/08/20 00:08:10;;;;;;;27.60;15.35;;;;;;;14.49;86.94;101590.50;4967020;28;20038;-49
2021/08/20 00:10:36;;;;;;;30.65;15.25;;;;;;;14.48;86.97;101594.00;4967809;28;20089;-48
2021/08/20 00:13:02;;;;;;;37.22;15.57;;;;;;;14.50;86.85;101591.38;4971435;28;20057;-50
2021/08/20 00:15:28;;;;;;;33.88;16.13;;;;;;;14.46;86.84;101584.34;4964964;28;20513;-49
2021/08/20 00:17:54;;;;;;;36.75;17.30;;;;;;;14.39;87.43;101579.94;4970426;28;20034;-49
2021/08/20 00:20:20;;;;;;;35.35;16.90;;;;;;;14.35;87.28;101583.34;4969050;28;20026;-47
2021/08/20 00:22:45;;;;;;;36.35;16.77;;;;;;;14.32;87.72;101578.06;4969074;28;20138;-49
2021/08/20 00:25:11;;;;;;;29.55;15.77;;;;;;;14.28;87.51;101581.50;4959376;28;20088;-51
2021/08/20 00:27:36;;;;;;;36.22;16.63;;;;;;;14.27;87.76;101578.03;4963797;28;20022;-52
2021/08/20 00:30:03;;;;;;;32.00;16.00;;;;;;;14.22;87.90;101572.72;4968141;28;20085;-47
2021/08/20 00:32:28;;;;;;;38.72;17.02;;;;;;;14.20;87.81;101573.59;4969341;28;20030;-47
2021/08/20 00:34:54;;;;;;;37.28;16.73;;;;;;;14.16;87.77;101572.66;4966107;28;20666;-51
2021/08/20 00:37:19;;;;;;;34.85;16.08;;;;;;;14.14;87.93;101577.03;4965870;28;20121;-47
2021/08/20 00:39:45;;;;;;;34.33;15.73;;;;;;;14.14;87.93;101582.28;4964071;28;20030;-47
2021/08/20 00:42:11;;;;;;;40.08;16.73;;;;;;;14.12;87.87;101584.00;4970495;28;20034;-47
2021/08/20 00:44:36;;;;;;;36.78;16.77;;;;;;;14.14;88.43;101582.28;4966601;28;20121;-49
2021/08/20 00:47:02;;;;;;;39.92;17.67;;;;;;;14.20;88.61;101581.47;4963579;28;20030;-50
2021/08/20 00:49:29;;;;;;;38.97;16.85;;;;;;;14.26;88.67;101585.88;4967796;28;20041;-49
2021/08/20 00:51:54;;;;;;;40.85;17.25;;;;;;;14.29;88.81;101585.91;4964912;28;20334;-49
2021/08/20 00:54:20;;;;;;;46.38;18.90;;;;;;;14.30;89.01;101575.44;4962751;28;20374;-47
2021/08/20 00:56:46;;;;;;;45.85;18.17;;;;;;;14.32;88.91;101568.47;4968949;28;20508;-52
2021/08/20 00:59:15;;;;;;;43.95;17.85;;;;;;;14.33;88.81;101572.84;4962998;28;20038;-47
2021/08/20 01:01:41;;;;;;;48.67;18.75;;;;;;;14.33;89.07;101564.97;4966480;28;20034;-47
2021/08/20 01:04:07;;;;;;;38.25;16.65;;;;;;;14.35;88.89;101572.84;4965785;28;20033;-48
2021/08/20 01:06:33;;;;;;;41.03;16.08;;;;;;;14.36;89.04;101566.72;4965492;28;20454;-47
2021/08/20 01:08:58;;;;;;;44.28;17.70;;;;;;;14.38;89.18;101563.31;4964333;28;20070;-48
2021/08/20 01:11:26;;;;;;;41.85;17.08;;;;;;;14.42;89.31;101567.69;4962901;28;20042;-48
2021/08/20 01:13:51;;;;;;;46.05;17.73;;;;;;;14.46;89.29;101558.09;4966237;28;20580;-48
2021/08/20 01:16:17;;;;;;;39.47;15.10;;;;;;;14.50;89.33;101558.16;4960293;28;20034;-47
2021/08/20 01:18:42;;;;;;;45.58;19.23;;;;;;;14.57;89.29;101561.72;4968235;28;20066;-47
2021/08/20 01:21:11;;;;;;;46.17;18.45;;;;;;;14.68;89.47;101559.16;4960790;28;20026;-48
2021/08/20 01:23:37;;;;;;;43.65;17.70;;;;;;;14.78;89.46;101558.34;4967217;28;20094;-47
2021/08/20 01:26:03;;;;;;;47.15;18.92;;;;;;;14.81;89.54;101558.41;4958359;28;20501;-50
2021/08/20 01:28:29;;;;;;;47.08;19.52;;;;;;;14.83;89.51;101561.88;4964221;28;20100;-48
2021/08/20 01:31:02;;;;;;;44.17;17.20;;;;;;;14.83;89.23;101560.13;4962736;28;20026;-47
2021/08/20 01:33:28;;;;;;;50.15;21.13;;;;;;;14.87;89.27;101559.31;4959267;28;20026;-49
2021/08/20 01:35:54;;;;;;;49.17;18.88;;;;;;;14.90;89.63;101567.19;4966018;28;20038;-49
2021/08/20 01:38:19;;;;;;;53.50;20.60;;;;;;;14.97;89.72;101560.25;4956238;28;20030;-47
2021/08/20 01:40:44;;;;;;;53.75;21.60;;;;;;;15.21;89.18;101556.88;4967901;28;20225;-47
2021/08/20 01:43:10;;;;;;;49.97;19.88;;;;;;;15.49;88.37;101553.50;4968429;28;20031;-49
2021/08/20 01:45:36;;;;;;;48.85;19.65;;;;;;;15.60;87.96;101559.72;4959388;28;20109;-52
2021/08/20 01:48:01;;;;;;;49.25;20.08;;;;;;;15.63;87.58;101553.59;4971090;28;20034;-50
2021/08/20 01:50:27;;;;;;;48.67;19.70;;;;;;;15.66;87.62;101550.97;4964271;28;20054;-48
2021/08/20 01:52:52;;;;;;;48.83;19.33;;;;;;;15.65;87.32;101552.72;4970165;28;20109;-48
2021/08/20 01:55:17;;;;;;;51.05;20.77;;;;;;;15.62;87.01;101547.44;4961964;28;20454;-51
2021/08/20 01:57:44;;;;;;;49.40;20.40;;;;;;;15.61;86.97;101550.09;4967831;28;20518;-48
2021/08/20 02:00:10;;;;;;;45.08;18.15;;;;;;;15.59;86.79;101544.81;4960423;28;20107;-50
2021/08/20 02:02:36;;;;;;;44.33;17.80;;;;;;;15.52;86.93;101553.56;4961461;28;20377;-47
2021/08/20 02:05:01;;;;;;;38.65;17.48;;;;;;;15.51;86.79;101549.13;4969022;28;20035;-52
2021/08/20 02:07:26;;;;;;;44.63;18.95;;;;;;;15.31;87.31;101558.66;4965177;28;20773;-50
2021/08/20 02:09:52;;;;;;;39.80;18.25;;;;;;;15.11;88.58;101550.72;4967768;28;20030;-49
2021/08/20 02:12:17;;;;;;;57.30;21.65;;;;;;;15.07;88.92;101551.53;4969544;28;20033;-48
2021/08/20 02:14:43;;;;;;;54.88;20.23;;;;;;;15.09;89.21;101556.81;4971146;28;20161;-47
2021/08/20 02:17:11;;;;;;;47.33;18.35;;;;;;;15.08;89.41;101561.19;4970802;28;20049;-48
2021/08/20 02:19:36;;;;;;;46.47;18.27;;;;;;;15.11;89.33;101558.59;4965673;28;20035;-47
2021/08/20 02:22:02;;;;;;;56.83;20.25;;;;;;;15.09;89.51;101554.19;4973354;28;20486;-47
2021/08/20 02:24:27;;;;;;;61.70;21.35;;;;;;;15.10;89.45;101563.81;4968660;28;20385;-50
2021/08/20 02:26:53;;;;;;;47.22;19.08;;;;;;;15.09;89.56;101560.31;4969277;28;20046;-48
2021/08/20 02:29:18;;;;;;;57.53;20.75;;;;;;;15.09;89.71;101564.69;4964032;28;20490;-47
2021/08/20 02:31:44;;;;;;;56.95;20.38;;;;;;;15.10;89.85;101562.06;4971819;28;20233;-46
2021/08/20 02:34:09;;;;;;;42.75;16.73;;;;;;;15.09;89.75;101557.69;4962602;28;20038;-50
2021/08/20 02:36:34;;;;;;;42.97;17.50;;;;;;;15.06;89.67;101556.81;4969620;28;21019;-47
2021/08/20 02:39:00;;;;;;;46.35;16.58;;;;;;;15.00;89.59;101552.41;4970955;28;20034;-52
2021/08/20 02:41:25;;;;;;;46.00;16.80;;;;;;;14.98;89.31;101549.75;4955210;28;20034;-50
2021/08/20 02:43:51;;;;;;;60.33;19.60;;;;;;;14.98;89.75;101546.25;4971606;28;20142;-47
2021/08/20 02:46:17;;;;;;;50.13;17.95;;;;;;;14.96;89.72;101545.34;4965226;28;20038;-51
2021/08/20 02:48:42;;;;;;;63.45;20.30;;;;;;;14.94;89.91;101545.34;4968232;28;20034;-49
2021/08/20 02:51:09;;;;;;;54.83;18.33;;;;;;;14.98;89.90;101554.13;4962186;28;20035;-49
2021/08/20 02:53:34;;;;;;;59.53;18.38;;;;;;;15.00;90.14;101552.41;4965275;28;20041;-47
2021/08/20 02:55:59;;;;;;;60.22;18.23;;;;;;;15.08;90.21;101544.53;4973201;28;20194;-48
2021/08/20 02:58:25;;;;;;;72.03;21.25;;;;;;;15.15;90.25;101539.34;4964186;28;20757;-50
2021/08/20 03:00:50;;;;;;;47.90;16.45;;;;;;;15.19;90.35;101534.97;4966975;28;20034;-49
2021/08/20 03:03:15;;;;;;;74.43;21.08;;;;;;;15.17;90.43;101527.09;4960407;28;20030;-48
2021/08/20 03:05:41;;;;;;;56.50;18.55;;;;;;;15.18;90.51;101527.97;4971861;28;20065;-48
2021/08/20 03:08:06;;;;;;;68.78;19.70;;;;;;;15.14;90.41;101520.94;4967981;28;20336;-49
2021/08/20 03:10:32;;;;;;;74.95;20.52;;;;;;;15.11;90.26;101526.19;4962126;28;20526;-47
2021/08/20 03:12:57;;;;;;;69.40;19.90;;;;;;;15.12;90.53;101527.94;4970324;28;20192;-49
2021/08/20 03:15:23;;;;;;;55.85;16.70;;;;;;;15.10;90.41;101532.31;4967075;28;20037;-49
2021/08/20 03:17:48;;;;;;;56.28;15.95;;;;;;;15.07;90.22;101529.66;4968648;28;20121;-50
2021/08/20 03:20:13;;;;;;;66.15;19.60;;;;;;;15.07;90.23;101530.53;4962766;28;20090;-50
2021/08/20 03:22:39;;;;;;;62.70;17.45;;;;;;;15.08;90.47;101532.28;4971247;28;20336;-49
2021/08/20 03:25:05;;;;;;;69.13;18.42;;;;;;;15.08;90.48;101532.28;4964304;28;20438;-48
2021/08/20 03:27:30;;;;;;;59.90;17.38;;;;;;;15.07;90.64;101533.16;4962909;28;20889;-48
2021/08/20 03:29:56;;;;;;;44.78;14.27;;;;;;;15.04;90.56;101527.91;4968765;28;20050;-49
2021/08/20 03:32:21;;;;;;;56.05;17.30;;;;;;;14.98;90.37;101541.00;4969537;28;20077;-48
2021/08/20 03:34:46;;;;;;;63.00;18.48;;;;;;;14.97;90.32;101534.88;4968326;28;20038;-50
2021/08/20 03:37:12;;;;;;;68.35;17.17;;;;;;;14.98;90.25;101534.00;4961833;28;20074;-46
2021/08/20 03:39:37;;;;;;;75.85;18.95;;;;;;;15.00;90.50;101534.88;4968791;28;20698;-47
2021/08/20 03:42:02;;;;;;;75.13;17.75;;;;;;;15.03;90.33;101540.16;4962451;28;20129;-51
2021/08/20 03:44:28;;;;;;;66.63;17.73;;;;;;;15.06;90.25;101544.56;4970194;28;20030;-50
2021/08/20 03:46:53;;;;;;;69.35;17.05;;;;;;;15.03;90.61;101540.16;4967232;28;20537;-50
2021/08/20 03:49:19;;;;;;;55.70;15.77;;;;;;;15.01;90.51;101541.00;4962463;28;20035;-48
2021/08/20 03:51:44;;;;;;;54.90;15.55;;;;;;;14.97;90.43;101547.09;4967735;28;20054;-49
2021/08/20 03:54:11;;;;;;;48.30;14.23;;;;;;;14.90;90.42;101543.56;4962914;28;20138;-49
2021/08/20 03:56:36;;;;;;;45.55;13.45;;;;;;;14.86;90.33;101538.28;4981937;28;20067;-49
2021/08/20 03:59:03;;;;;;;54.70;14.73;;;;;;;14.81;90.24;101534.78;4963632;28;20304;-51
2021/08/20 04:01:29;;;;;;;55.13;15.80;;;;;;;14.75;90.31;101543.47;4966817;28;20319;-48
2021/08/20 04:03:55;;;;;;;52.72;14.95;;;;;;;14.72;90.13;101545.19;4967297;28;20038;-47
2021/08/20 04:06:20;;;;;;;78.95;19.85;;;;;;;14.69;90.42;101551.31;4962618;28;20034;-50
2021/08/20 04:08:45;;;;;;;66.32;16.80;;;;;;;14.65;90.51;101557.38;4960190;28;20026;-46
2021/08/20 04:11:12;;;;;;;62.65;17.00;;;;;;;14.60;90.46;101554.72;4965966;28;20101;-50
2021/08/20 04:13:38;;;;;;;69.68;17.90;;;;;;;14.56;90.56;101554.72;4967634;28;20125;-47
2021/08/20 04:16:03;;;;;;;59.67;16.17;;;;;;;14.52;90.47;101559.03;4967091;28;20402;-51
2021/08/20 04:18:28;;;;;;;98.65;22.58;;;;;;;14.54;90.60;101556.44;4963505;28;20479;-51
2021/08/20 04:20:54;;;;;;;76.38;19.40;;;;;;;14.57;90.77;101556.47;4971152;28;20053;-50
2021/08/20 04:23:19;;;;;;;81.55;19.70;;;;;;;14.60;90.94;101559.97;4962104;28;20449;-51
2021/08/20 04:25:44;;;;;;;90.63;20.83;;;;;;;14.65;91.05;101549.50;4962853;28;20564;-50
2021/08/20 04:28:10;;;;;;;77.43;18.27;;;;;;;14.70;91.16;101557.44;4964252;28;20577;-49
2021/08/20 04:30:35;;;;;;;77.32;18.08;;;;;;;14.71;91.08;101564.41;4967994;28;20041;-47
2021/08/20 04:33:01;;;;;;;96.00;20.38;;;;;;;14.71;90.98;101560.06;4961966;28;20670;-47
2021/08/20 04:35:27;;;;;;;73.30;18.10;;;;;;;14.71;91.04;101570.56;4961811;28;20026;-48
2021/08/20 04:37:53;;;;;;;72.28;17.77;;;;;;;14.67;91.00;101568.78;4963431;28;20542;-49
2021/08/20 04:40:18;;;;;;;69.85;17.08;;;;;;;14.64;90.91;101566.13;4962636;28;20034;-48
2021/08/20 04:42:44;;;;;;;74.97;17.15;;;;;;;14.63;90.81;101567.00;4966655;28;20520;-47
2021/08/20 04:45:10;;;;;;;82.53;17.45;;;;;;;14.72;90.94;101574.06;4958754;28;20038;-48
2021/08/20 04:47:35;;;;;;;105.45;21.50;;;;;;;14.83;91.17;101585.50;4963120;28;20054;-49
2021/08/20 04:50:03;;;;;;;97.18;21.27;;;;;;;14.97;91.41;101586.50;4964861;28;20141;-50
2021/08/20 04:52:28;;;;;;;110.70;23.00;;;;;;;15.10;91.58;101583.09;4968330;28;20591;-46
2021/08/20 04:54:53;;;;;;;101.05;21.95;;;;;;;15.20;91.67;101586.63;4966622;28;20053;-48
2021/08/20 04:57:19;;;;;;;89.10;20.70;;;;;;;15.28;91.38;101585.81;4966454;28;20034;-49
2021/08/20 04:59:44;;;;;;;98.85;21.17;;;;;;;15.36;91.56;101585.88;4964551;28;20092;-48
2021/08/20 05:02:10;;;;;;;94.93;21.65;;;;;;;15.43;91.62;101577.13;4968609;28;20137;-50
2021/08/20 05:04:36;;;;;;;83.78;19.75;;;;;;;15.48;91.56;101582.41;4963093;28;20424;-47
2021/08/20 05:07:05;;;;;;;76.03;18.15;;;;;;;15.49;91.60;101584.19;4963096;28;20037;-49
2021/08/20 05:09:33;;;;;;;73.57;17.63;;;;;;;15.48;91.62;101585.03;4966367;28;20038;-52
2021/08/20 05:12:02;;;;;;;67.18;17.02;;;;;;;15.48;91.30;101582.41;4963520;28;21308;-48
2021/08/20 05:14:28;;;;;;;68.70;17.48;;;;;;;15.50;91.45;101586.78;4964348;28;20026;-50
2021/08/20 05:16:53;;;;;;;72.93;17.80;;;;;;;15.58;91.39;101594.75;4963724;28;20049;-48
2021/08/20 05:19:19;;;;;;;77.30;18.02;;;;;;;15.64;91.47;101595.66;4964598;28;20153;-52
2021/08/20 05:21:44;;;;;;;70.45;17.85;;;;;;;15.73;91.50;101594.81;4970792;28;20438;-49
2021/08/20 05:24:09;;;;;;;61.28;15.75;;;;;;;15.78;91.63;101593.09;4962970;28;20065;-50
2021/08/20 05:26:35;;;;;;;63.47;16.80;;;;;;;15.84;91.78;101601.00;4966243;28;20428;-50
2021/08/20 05:29:00;;;;;;;62.40;16.60;;;;;;;15.91;91.57;101601.91;4961336;28;20478;-47
2021/08/20 05:31:26;;;;;;;61.08;16.30;;;;;;;15.98;91.46;101598.41;4965308;28;20488;-48
2021/08/20 05:33:51;;;;;;;61.65;16.85;;;;;;;16.12;91.60;101601.94;4970495;28;20142;-49
2021/08/20 05:36:16;;;;;;;50.88;15.35;;;;;;;16.30;91.70;101606.34;4963925;28;20037;-49
2021/08/20 05:38:42;;;;;;;41.47;13.85;;;;;;;16.35;91.81;101609.88;4962304;28;20033;-47
2021/08/20 05:41:08;;;;;;;38.85;13.48;;;;;;;16.38;91.52;101616.03;4960867;28;20045;-46
2021/08/20 05:43:33;;;;;;;43.40;13.55;;;;;;;16.44;91.35;101616.03;4967233;28;20437;-49
2021/08/20 05:45:58;;;;;;;36.40;12.80;;;;;;;16.54;91.31;101612.53;4960411;28;20030;-49
2021/08/20 05:48:24;;;;;;;34.20;13.35;;;;;;;16.66;91.14;101613.44;4962461;28;20053;-47
2021/08/20 05:50:49;;;;;;;30.10;11.98;;;;;;;16.78;91.27;101613.44;4958882;28;20027;-52
2021/08/20 05:53:15;;;;;;;29.85;11.98;;;;;;;16.90;91.12;101613.44;4965279;28;20142;-49
2021/08/20 05:55:40;;;;;;;28.85;11.38;;;;;;;17.07;90.97;101613.44;4962451;28;20050;-51
2021/08/20 05:58:06;;;;;;;22.88;10.50;;;;;;;17.22;90.80;101608.13;4964664;28;20715;-50
2021/08/20 06:00:33;;;;;;;23.27;9.63;;;;;;;17.26;90.26;101616.00;4966639;28;20680;-48
2021/08/20 06:02:58;;;;;;;17.67;8.35;;;;;;;17.28;89.26;101616.88;4973585;28;20474;-50
2021/08/20 06:05:23;;;;;;;16.77;8.23;;;;;;;17.40;89.04;101623.88;4966568;28;20089;-51
2021/08/20 06:07:49;;;;;;;16.83;7.75;;;;;;;17.48;88.19;101614.22;4964279;28;20035;-50
2021/08/20 06:10:14;;;;;;;14.40;7.40;;;;;;;17.59;87.24;101617.69;4964864;28;20034;-47
2021/08/20 06:12:40;;;;;;;15.02;6.60;;;;;;;17.71;86.49;101617.66;4965198;28;20031;-49
2021/08/20 06:15:05;;;;;;;11.43;6.90;;;;;;;17.89;85.99;101623.75;4962786;28;20026;-47
2021/08/20 06:17:31;;;;;;;14.00;5.93;;;;;;;18.42;85.45;101626.09;4964315;28;20292;-49
2021/08/20 06:19:56;;;;;;;9.63;5.15;;;;;;;19.56;81.43;101630.38;4956049;28;20069;-46
2021/08/20 06:22:22;;;;;;;9.95;4.40;;;;;;;21.00;74.00;101622.97;4964842;28;20744;-52
2021/08/20 06:24:48;;;;;;;8.23;3.83;;;;;;;22.30;68.44;101624.78;4963781;28;20038;-48
2021/08/20 06:27:13;;;;;;;8.15;3.70;;;;;;;23.35;65.04;101622.16;4966290;28;20035;-51
2021/08/20 06:29:38;;;;;;;6.28;3.45;;;;;;;24.29;61.73;101619.41;4965220;28;20157;-47
2021/08/20 06:32:04;;;;;;;9.07;3.47;;;;;;;24.64;60.10;101612.94;4963179;28;20486;-47
2021/08/20 06:34:32;;;;;;;7.22;2.88;;;;;;;24.26;60.18;101616.84;4966036;28;20093;-49
2021/08/20 06:36:57;;;;;;;8.00;3.10;;;;;;;24.20;62.49;101612.59;4956553;28;20105;-46
2021/08/20 06:39:22;;;;;;;7.80;3.05;;;;;;;24.52;62.23;101619.53;4976966;28;20041;-49
2021/08/20 06:41:48;;;;;;;7.05;3.13;;;;;;;24.95;59.47;101626.13;4967248;28;20026;-51
2021/08/20 06:44:13;;;;;;;8.32;3.10;;;;;;;24.33;61.05;101625.53;4965913;28;20404;-47
2021/08/20 06:46:38;;;;;;;10.15;3.40;;;;;;;23.36;62.94;101622.09;4970243;28;20034;-50
2021/08/20 06:49:04;;;;;;;6.93;3.60;;;;;;;22.47;65.77;101635.03;4966359;28;20041;-47
2021/08/20 06:51:30;;;;;;;7.28;4.13;;;;;;;21.84;68.89;101633.72;4967243;28;20026;-48
2021/08/20 06:53:55;;;;;;;9.30;5.15;;;;;;;21.70;69.31;101627.84;4966122;28;20731;-52
2021/08/20 06:56:21;;;;;;;9.20;5.03;;;;;;;22.06;69.41;101623.56;4972159;28;20386;-50
2021/08/20 06:58:46;;;;;;;9.32;5.75;;;;;;;22.82;66.96;101640.38;4971540;28;20049;-48
2021/08/20 07:01:12;;;;;;;11.05;5.93;;;;;;;23.31;65.42;101639.97;4963572;28;20073;-46
2021/08/20 07:03:37;;;;;;;11.45;5.93;;;;;;;23.13;64.06;101642.25;4968413;28;20181;-49
2021/08/20 07:06:02;;;;;;;10.23;6.18;;;;;;;22.67;65.33;101649.59;4965126;28;20402;-49
2021/08/20 07:08:28;;;;;;;10.32;6.10;;;;;;;21.95;68.50;101646.84;4967839;28;20434;-49
2021/08/20 07:10:54;;;;;;;11.93;6.63;;;;;;;21.44;69.14;101652.25;4961967;28;20031;-48
2021/08/20 07:13:21;;;;;;;12.50;7.13;;;;;;;21.01;70.68;101648.59;4968031;28;20034;-51
2021/08/20 07:15:46;;;;;;;13.23;7.38;;;;;;;21.09;71.07;101646.69;4965507;28;20264;-48
2021/08/20 07:18:12;;;;;;;12.63;7.35;;;;;;;21.61;69.99;101641.28;4965147;28;20026;-47
2021/08/20 07:20:37;;;;;;;12.73;6.40;;;;;;;22.74;67.69;101638.84;4964228;28;20035;-47
2021/08/20 07:23:03;;;;;;;12.82;6.53;;;;;;;23.51;65.25;101642.13;4968266;28;20026;-48
2021/08/20 07:25:28;;;;;;;13.07;6.50;;;;;;;23.65;63.23;101639.97;4966053;28;20120;-48
2021/08/20 07:27:53;;;;;;;10.50;6.35;;;;;;;22.82;66.33;101644.81;4958835;28;20101;-48
2021/08/20 07:30:19;;;;;;;12.60;6.82;;;;;;;22.27;67.45;101646.97;4967785;28;20224;-46
2021/08/20 07:32:45;;;;;;;14.00;7.03;;;;;;;22.18;68.41;101643.66;4961760;28;20117;-48
2021/08/20 07:35:12;;;;;;;15.30;6.78;;;;;;;22.21;67.94;101648.91;4966939;28;20643;-53
2021/08/20 07:37:37;;;;;;;16.15;7.07;;;;;;;22.12;68.89;101651.78;4952001;28;20558;-51
2021/08/20 07:40:05;;;;;;;11.68;6.30;;;;;;;21.90;67.65;101655.75;4967316;28;20033;-47
2021/08/20 07:42:30;;;;;;;14.95;6.68;;;;;;;21.64;68.35;101650.97;4969618;28;20031;-49
2021/08/20 07:44:55;;;;;;;14.93;6.70;;;;;;;21.20;70.80;101652.69;4965329;28;20501;-49
2021/08/20 07:47:21;;;;;;;15.95;7.35;;;;;;;20.86;71.38;101654.16;4966349;28;20054;-48
2021/08/20 07:49:46;;;;;;;16.50;8.52;;;;;;;20.63;71.52;101652.75;4970303;28;20030;-47
2021/08/20 07:52:11;;;;;;;16.67;7.78;;;;;;;20.20;73.54;101649.81;4963778;28;20073;-48
2021/08/20 07:54:37;;;;;;;14.75;7.45;;;;;;;20.77;74.20;101660.47;4965318;28;20038;-51
2021/08/20 07:57:03;;;;;;;13.00;6.72;;;;;;;21.91;69.12;101660.16;4939776;28;20343;-49
2021/08/20 07:59:28;;;;;;;11.55;6.32;;;;;;;23.09;66.81;101653.91;4963491;28;20023;-48
2021/08/20 08:01:54;;;;;;;12.25;6.25;;;;;;;23.93;64.06;101655.13;4964597;28;20069;-47
2021/08/20 08:04:19;;;;;;;9.75;5.30;;;;;;;24.42;60.70;101663.41;4964748;28;20018;-46
2021/08/20 08:06:45;;;;;;;11.57;5.25;;;;;;;24.42;58.93;101660.75;4957846;28;20270;-46
2021/08/20 08:09:10;;;;;;;10.23;5.20;;;;;;;23.71;62.97;101669.06;4957139;28;20030;-47
2021/08/20 08:11:35;;;;;;;10.48;5.40;;;;;;;23.24;64.38;101670.31;4963819;28;20049;-49
2021/08/20 08:14:03;;;;;;;8.88;5.10;;;;;;;22.91;65.17;101669.41;4965102;28;20029;-50
2021/08/20 08:16:34;;;;;;;11.63;4.97;;;;;;;22.92;66.89;101665.84;4978472;28;20034;-48
2021/08/20 08:19:00;;;;;;;11.07;5.15;;;;;;;23.23;63.94;101673.91;4955386;28;20542;-49
2021/08/20 08:21:26;;;;;;;7.72;4.20;;;;;;;23.04;64.93;101667.31;4967998;28;21110;-47
2021/08/20 08:23:51;;;;;;;9.40;5.25;;;;;;;22.87;63.98;101677.50;4959012;28;20476;-49
2021/08/20 08:26:16;;;;;;;10.63;4.72;;;;;;;22.96;65.01;101677.28;4964381;28;20495;-52
2021/08/20 08:28:42;;;;;;;11.77;5.03;;;;;;;22.75;63.49;101675.16;4965279;28;20039;-50
2021/08/20 08:31:07;;;;;;;11.30;5.00;;;;;;;22.88;64.42;101676.56;4962188;28;20667;-50
2021/08/20 08:33:32;;;;;;;8.52;4.38;;;;;;;23.08;64.92;101671.63;4959707;28;20660;-49
2021/08/20 08:35:58;;;;;;;6.97;3.60;;;;;;;23.27;62.34;101674.69;4969855;28;20034;-49
2021/08/20 08:38:23;;;;;;;8.88;3.40;;;;;;;23.06;65.51;101679.66;4966384;28;20022;-49
2021/08/20 08:40:49;;;;;;;6.22;2.90;;;;;;;23.53;63.91;101680.22;4963285;28;20519;-47
2021/08/20 08:43:15;;;;;;;5.88;3.15;;;;;;;23.84;61.62;101680.25;4970149;28;20330;-51
2021/08/20 08:45:41;;;;;;;6.80;3.05;;;;;;;24.19;61.41;101684.56;4960419;28;20039;-49
2021/08/20 08:48:11;;;;;;;13.38;3.20;;;;;;;24.55;59.41;101677.22;4934277;28;20414;-47
2021/08/20 08:50:36;;;;;;;7.40;3.05;;;;;;;24.22;63.03;101681.78;4962311;28;20149;-48
2021/08/20 08:53:02;;;;;;;4.72;2.70;;;;;;;23.97;61.98;101678.94;4959672;28;20018;-48
2021/08/20 08:55:28;;;;;;;6.25;2.40;;;;;;;24.36;58.63;101679.59;4965362;28;20018;-46
2021/08/20 08:57:53;;;;;;;8.25;2.70;;;;;;;23.95;59.52;101683.47;4961427;28;20360;-46
2021/08/20 09:00:39;;;;;;;6.15;2.75;;;;;;;23.69;62.72;101678.88;4965759;28;20026;-47
2021/08/20 09:03:05;;;;;;;7.65;2.78;;;;;;;23.74;61.93;101679.63;4960138;28;20361;-51
2021/08/20 09:05:44;;;;;;;10.13;2.80;;;;;;;23.93;63.57;101684.41;4964660;28;20060;-49
2021/08/20 09:08:19;;;;;;;6.15;2.47;;;;;;;24.14;61.04;101683.81;4964386;28;20569;-48
2021/08/20 09:10:55;;;;;;;8.98;2.47;;;;;;;23.69;61.63;101680.66;4965667;28;20417;-47
2021/08/20 09:13:21;;;;;;;6.75;2.58;;;;;;;23.45;60.05;101691.03;4965625;28;20131;-48
2021/08/20 09:15:48;;;;;;;5.00;2.17;;;;;;;23.14;60.09;101692.75;4973979;28;20318;-48
2021/08/20 09:18:21;;;;;;;8.00;2.42;;;;;;;22.69;62.22;101694.72;4977045;28;20034;-48
2021/08/20 09:20:47;;;;;;;5.97;2.80;;;;;;;22.53;61.59;101702.19;4960119;28;20033;-49
2021/08/20 09:23:19;;;;;;;8.85;3.03;;;;;;;22.37;64.29;101698.16;4967018;28;20033;-49
2021/08/20 09:25:46;;;;;;;6.97;3.53;;;;;;;22.33;64.22;101691.13;4962905;28;20050;-47
2021/08/20 09:28:19;;;;;;;9.55;3.80;;;;;;;22.42;64.98;101687.41;4980843;28;20299;-49
2021/08/20 09:30:53;;;;;;;11.00;3.85;;;;;;;22.61;64.33;101694.94;4960146;28;20330;-47
2021/08/20 09:33:24;;;;;;;8.10;4.15;;;;;;;22.75;63.43;101693.75;4972692;28;20038;-50
2021/08/20 09:36:03;;;;;;;9.75;4.40;;;;;;;22.96;65.46;101694.09;4965104;28;20747;-46
2021/08/20 09:38:32;;;;;;;8.85;4.50;;;;;;;23.37;62.55;101702.81;4960788;28;20161;-51
2021/08/20 09:41:01;;;;;;;7.95;4.70;;;;;;;23.56;61.49;101704.09;4961855;28;20623;-48
2021/08/20 09:43:33;;;;;;;6.25;4.30;;;;;;;24.17;59.76;101700.56;4977254;28;20389;-47
2021/08/20 09:45:59;;;;;;;8.05;3.70;;;;;;;24.49;59.65;101702.28;4962332;28;20044;-47
2021/08/20 09:48:46;;;;;;;10.13;4.18;;;;;;;24.62;60.96;101700.97;4959717;28;20035;-50
2021/08/20 09:51:34;;;;;;;10.15;4.68;;;;;;;24.44;61.19;101703.34;4966443;28;20060;-47
2021/08/20 09:54:21;;;;;;;7.97;4.50;;;;;;;24.26;59.31;101704.78;4958002;28;20155;-47
2021/08/20 09:56:46;;;;;;;9.05;5.20;;;;;;;24.12;58.88;101705.16;4964945;28;20077;-50
2021/08/20 09:59:12;;;;;;;8.57;4.70;;;;;;;23.78;60.17;101705.25;4949119;28;20560;-50
2021/08/20 10:01:40;;;;;;;5.28;3.58;;;;;;;23.55;59.70;101707.66;4965880;28;20122;-47
2021/08/20 10:04:10;;;;;;;6.60;3.30;;;;;;;23.13;61.00;101711.41;4979838;28;20519;-49
2021/08/20 10:06:48;;;;;;;8.05;3.70;;;;;;;22.80;62.46;101706.03;4962550;28;20472;-46
2021/08/20 10:09:18;;;;;;;6.75;3.63;;;;;;;22.81;63.84;101717.53;4964064;28;20449;-51
2021/08/20 10:11:48;;;;;;;6.80;3.85;;;;;;;22.94;62.61;101711.88;4957456;28;20530;-49
2021/08/20 10:14:14;;;;;;;5.22;3.30;;;;;;;22.97;63.34;101713.59;4963282;28;20114;-52
2021/08/20 10:16:41;;;;;;;5.60;3.55;;;;;;;22.95;65.43;101720.72;4964450;28;20035;-49
2021/08/20 10:19:08;;;;;;;7.13;3.58;;;;;;;23.02;61.30;101720.53;4972740;28;20069;-49
2021/08/20 10:21:39;;;;;;;6.63;3.40;;;;;;;23.06;62.78;101726.66;4967651;28;20030;-47
2021/08/20 10:24:05;;;;;;;6.93;3.58;;;;;;;23.00;62.60;101713.50;4966722;28;20433;-47
2021/08/20 10:26:31;;;;;;;7.28;4.00;;;;;;;23.01;62.37;101725.88;4962216;28;20042;-50
2021/08/20 10:28:58;;;;;;;10.13;4.10;;;;;;;23.08;61.86;101726.63;4968795;28;20074;-50
2021/08/20 10:31:24;;;;;;;7.07;4.03;;;;;;;23.12;62.52;101734.47;4966035;28;20041;-48
2021/08/20 10:33:50;;;;;;;8.35;3.90;;;;;;;23.15;62.18;101729.09;4965707;28;20022;-47
2021/08/20 10:36:16;;;;;;;7.13;3.80;;;;;;;23.12;61.21;101730.94;4971894;28;20479;-48
2021/08/20 10:38:48;;;;;;;6.30;3.67;;;;;;;22.97;60.91;101738.41;4964366;28;20069;-47
2021/08/20 10:41:19;;;;;;;7.72;4.07;;;;;;;22.64;61.86;101736.47;4967379;28;20118;-48
2021/08/20 10:44:00;;;;;;;7.20;4.20;;;;;;;22.59;62.76;101733.94;4971279;28;20113;-47
2021/08/20 10:46:34;;;;;;;7.22;4.43;;;;;;;22.32;63.06;101739.88;4964836;28;20046;-49
2021/08/20 10:49:12;;;;;;;8.05;4.30;;;;;;;22.08;65.62;101735.09;4964895;28;20057;-47
2021/08/20 10:51:53;;;;;;;9.93;4.57;;;;;;;21.99;65.63;101743.22;4965085;28;20382;-50
2021/08/20 10:54:24;;;;;;;10.05;4.40;;;;;;;22.13;65.13;101734.06;4968462;28;20032;-48
2021/08/20 10:56:49;;;;;;;6.07;3.72;;;;;;;22.40;65.26;101732.59;4961295;28;20145;-53
2021/08/20 10:59:42;;;;;;;6.88;4.07;;;;;;;22.57;62.23;101735.75;4967443;28;20048;-47
2021/08/20 11:02:22;;;;;;;8.07;3.95;;;;;;;22.83;62.52;101731.66;4963686;28;20023;-50
2021/08/20 11:05:08;;;;;;;7.03;4.20;;;;;;;22.96;60.72;101735.78;4967067;28;20447;-49
2021/08/20 11:07:43;;;;;;;9.32;3.80;;;;;;;23.09;60.52;101737.22;4974287;28;20035;-51
2021/08/20 11:10:08;;;;;;;9.02;4.30;;;;;;;23.18;63.46;101747.63;4968650;28;20034;-49
2021/08/20 11:12:38;;;;;;;8.10;4.35;;;;;;;23.28;60.75;101735.88;4967017;28;20405;-57